Time,TemperatureF,DewpointF,PressureIn,WindDirection,WindDirectionDegrees,WindSpeedMPH,WindSpeedGustMPH,Humidity,HourlyPrecipIn,Conditions,Clouds,dailyrainin,SoftwareType,DateUTC
2013-02-14 00:02:00,38.0,21.0,-100.00,West,265,7.0,10.0,49,0.00,,,-99.99,,2013-02-14 06:02:00,
2013-02-14 00:11:00,38.0,22.0,-100.00,West,275,6.0,10.0,50,0.00,,,-99.99,,2013-02-14 06:11:00,
2013-02-14 00:21:00,38.0,22.0,-100.00,WNW,300,4.0,8.0,50,0.00,,,-99.99,,2013-02-14 06:21:00,
2013-02-14 00:31:00,39.0,22.0,-100.00,WNW,285,7.0,11.0,50,0.00,,,-99.99,,2013-02-14 06:31:00,
2013-02-14 00:41:00,38.0,22.0,-100.00,West,280,6.0,11.0,51,0.00,,,-99.99,,2013-02-14 06:41:00,
2013-02-14 00:51:00,39.0,23.0,-100.00,West,275,7.0,10.0,52,0.00,,,-99.99,,2013-02-14 06:51:00,
2013-02-14 01:01:00,39.0,23.0,-100.00,West,275,7.0,10.0,52,0.00,,,-99.99,,2013-02-14 07:01:00,
2013-02-14 01:11:00,38.0,23.0,-100.00,WNW,295,4.0,7.0,53,0.00,,,-99.99,,2013-02-14 07:11:00,
2013-02-14 01:21:00,38.0,23.0,-100.00,WNW,290,6.0,8.0,53,0.00,,,-99.99,,2013-02-14 07:21:00,
2013-02-14 01:31:00,38.0,23.0,-100.00,WNW,300,6.0,12.0,53,0.00,,,-99.99,,2013-02-14 07:31:00,
2013-02-14 01:41:00,38.0,23.0,-100.00,WNW,290,7.0,11.0,54,0.00,,,-99.99,,2013-02-14 07:41:00,
2013-02-14 01:51:00,38.0,24.0,-100.00,NW,305,6.0,9.0,56,0.00,,,-99.99,,2013-02-14 07:51:00,
2013-02-14 02:01:00,38.0,24.0,-100.00,NW,305,6.0,9.0,56,0.00,,,-99.99,,2013-02-14 08:01:00,
2013-02-14 02:11:00,38.0,24.0,-100.00,NW,305,7.0,9.0,57,0.00,,,-99.99,,2013-02-14 08:11:00,
2013-02-14 02:21:00,37.0,24.0,-100.00,WNW,295,5.0,9.0,59,0.00,,,-99.99,,2013-02-14 08:21:00,
2013-02-14 02:32:00,37.0,25.0,-100.00,WNW,300,6.0,9.0,60,0.00,,,-99.99,,2013-02-14 08:32:00,
2013-02-14 02:43:00,37.0,25.0,-100.00,WNW,295,6.0,7.0,61,0.00,,,-99.99,,2013-02-14 08:43:00,
2013-02-14 02:52:00,37.0,26.0,-100.00,NW,305,6.0,8.0,62,0.00,,,-99.99,,2013-02-14 08:52:00,
2013-02-14 03:01:00,37.0,26.0,-100.00,NW,305,6.0,8.0,62,0.00,,,-99.99,,2013-02-14 09:01:00,
2013-02-14 03:11:00,37.0,26.0,-100.00,NW,305,6.0,8.0,63,0.00,,,-99.99,,2013-02-14 09:11:00,
2013-02-14 03:21:00,37.0,26.0,-100.00,NW,305,6.0,8.0,63,0.00,,,-99.99,,2013-02-14 09:21:00,
2013-02-14 03:31:00,37.0,26.0,-100.00,NW,305,5.0,7.0,64,0.00,,,-99.99,,2013-02-14 09:31:00,
2013-02-14 03:41:00,36.0,26.0,-100.00,WNW,300,6.0,7.0,66,0.00,,,-99.99,,2013-02-14 09:41:00,
2013-02-14 03:51:00,36.0,27.0,-100.00,WNW,295,6.0,7.0,67,0.00,,,-99.99,,2013-02-14 09:51:00,
2013-02-14 04:02:00,36.0,27.0,-100.00,WNW,295,6.0,7.0,67,0.00,,,-99.99,,2013-02-14 10:02:00,
2013-02-14 04:11:00,36.0,27.0,-100.00,West,280,4.0,6.0,68,0.00,,,-99.99,,2013-02-14 10:11:00,
2013-02-14 04:21:00,36.0,27.0,-100.00,WNW,300,5.0,7.0,69,0.00,,,-99.99,,2013-02-14 10:21:00,
2013-02-14 04:31:00,36.0,27.0,-100.00,WNW,285,4.0,7.0,71,0.00,,,-99.99,,2013-02-14 10:31:00,
2013-02-14 04:42:00,36.0,27.0,-100.00,WNW,285,4.0,7.0,71,0.00,,,-99.99,,2013-02-14 10:42:00,
2013-02-14 04:52:00,35.0,27.0,-100.00,West,280,6.0,7.0,72,0.00,,,-99.99,,2013-02-14 10:52:00,
2013-02-14 05:02:00,35.0,27.0,-100.00,West,280,6.0,7.0,72,0.00,,,-99.99,,2013-02-14 11:02:00,
2013-02-14 05:11:00,35.0,27.0,-100.00,West,280,7.0,9.0,74,0.00,,,-99.99,,2013-02-14 11:11:00,
2013-02-14 05:21:00,35.0,28.0,-100.00,WNW,295,6.0,11.0,74,0.00,,,-99.99,,2013-02-14 11:21:00,
2013-02-14 05:32:00,35.0,28.0,-100.00,WNW,295,9.0,12.0,76,0.00,,,-99.99,,2013-02-14 11:32:00,
2013-02-14 05:42:00,35.0,28.0,-100.00,WNW,295,9.0,12.0,76,0.00,,,-99.99,,2013-02-14 11:42:00,
2013-02-14 05:52:00,35.0,29.0,-100.00,WNW,290,7.0,12.0,77,0.00,,,-99.99,,2013-02-14 11:52:00,
2013-02-14 06:02:00,35.0,29.0,-100.00,WNW,290,7.0,12.0,77,0.00,,,-99.99,,2013-02-14 12:02:00,
2013-02-14 06:11:00,35.0,29.0,-100.00,NW,315,9.0,13.0,77,0.00,,,-99.99,,2013-02-14 12:11:00,
2013-02-14 06:22:00,35.0,29.0,-100.00,NW,315,7.0,12.0,76,0.00,,,-99.99,,2013-02-14 12:22:00,
2013-02-14 06:32:00,36.0,29.0,-100.00,NW,310,11.0,20.0,74,0.00,,,-99.99,,2013-02-14 12:32:00,
2013-02-14 06:42:00,36.0,29.0,-100.00,NW,310,11.0,20.0,74,0.00,,,-99.99,,2013-02-14 12:42:00,
2013-02-14 06:53:00,36.0,29.0,-100.00,WNW,300,10.0,16.0,73,0.00,,,-99.99,,2013-02-14 12:53:00,
2013-02-14 07:01:00,36.0,29.0,-100.00,WNW,300,10.0,16.0,73,0.00,,,-99.99,,2013-02-14 13:01:00,
2013-02-14 07:11:00,37.0,29.0,-100.00,NNW,330,11.0,21.0,72,0.00,,,-99.99,,2013-02-14 13:11:00,
2013-02-14 07:21:00,36.0,29.0,-100.00,NW,325,9.0,19.0,72,0.00,,,-99.99,,2013-02-14 13:21:00,
2013-02-14 07:31:00,36.0,28.0,-100.00,NNW,345,9.0,17.0,71,0.00,,,-99.99,,2013-02-14 13:31:00,
2013-02-14 07:41:00,36.0,28.0,-100.00,NNW,345,9.0,17.0,71,0.00,,,-99.99,,2013-02-14 13:41:00,
2013-02-14 07:51:00,36.0,27.0,-100.00,NW,305,12.0,18.0,70,0.00,,,-99.99,,2013-02-14 13:51:00,
2013-02-14 08:01:00,36.0,27.0,-100.00,NW,305,12.0,18.0,70,0.00,,,-99.99,,2013-02-14 14:01:00,
2013-02-14 08:11:00,36.0,27.0,-100.00,WNW,300,14.0,19.0,69,0.00,,,-99.99,,2013-02-14 14:11:00,
2013-02-14 08:21:00,36.0,27.0,-100.00,NW,305,11.0,17.0,69,0.00,,,-99.99,,2013-02-14 14:21:00,
2013-02-14 08:31:00,36.0,27.0,-100.00,NW,310,14.0,22.0,68,0.00,,,-99.99,,2013-02-14 14:31:00,
2013-02-14 08:41:00,36.0,27.0,-100.00,NW,310,14.0,22.0,68,0.00,,,-99.99,,2013-02-14 14:41:00,
2013-02-14 08:52:00,36.0,27.0,-100.00,WNW,295,10.0,17.0,69,0.00,,,-99.99,,2013-02-14 14:52:00,
2013-02-14 09:01:00,36.0,27.0,-100.00,NW,315,13.0,21.0,69,0.00,,,-99.99,,2013-02-14 15:01:00,
2013-02-14 09:11:00,36.0,27.0,-100.00,NW,315,13.0,19.0,69,0.00,,,-99.99,,2013-02-14 15:11:00,
2013-02-14 09:21:00,36.0,27.0,-100.00,NW,320,12.0,17.0,69,0.00,,,-99.99,,2013-02-14 15:21:00,
2013-02-14 09:32:00,37.0,27.0,-100.00,NNW,330,10.0,17.0,67,0.00,,,-99.99,,2013-02-14 15:32:00,
2013-02-14 09:41:00,37.0,27.0,-100.00,NNW,335,13.0,20.0,65,0.00,,,-99.99,,2013-02-14 15:41:00,
2013-02-14 09:52:00,37.0,26.0,-100.00,NNW,335,11.0,18.0,63,0.00,,,-99.99,,2013-02-14 15:52:00,
2013-02-14 10:01:00,37.0,26.0,-100.00,NNW,335,11.0,18.0,63,0.00,,,-99.99,,2013-02-14 16:01:00,
2013-02-14 10:11:00,38.0,26.0,-100.00,NW,315,13.0,19.0,61,0.00,,,-99.99,,2013-02-14 16:11:00,
2013-02-14 10:21:00,39.0,26.0,-100.00,NW,320,11.0,19.0,61,0.00,,,-99.99,,2013-02-14 16:21:00,
2013-02-14 10:32:00,38.0,26.0,-100.00,NW,315,13.0,19.0,59,0.00,,,-99.99,,2013-02-14 16:32:00,
2013-02-14 10:41:00,39.0,26.0,-100.00,NW,325,12.0,18.0,58,0.00,,,-99.99,,2013-02-14 16:41:00,
2013-02-14 10:51:00,40.0,26.0,-100.00,North,355,12.0,17.0,56,0.00,,,-99.99,,2013-02-14 16:51:00,
2013-02-14 11:01:00,40.0,26.0,-100.00,North,355,12.0,17.0,56,0.00,,,-99.99,,2013-02-14 17:01:00,
2013-02-14 11:11:00,41.0,26.0,-100.00,NW,315,9.0,13.0,54,0.00,,,-99.99,,2013-02-14 17:11:00,
2013-02-14 11:21:00,41.0,25.0,-100.00,NW,310,9.0,17.0,53,0.00,,,-99.99,,2013-02-14 17:21:00,
2013-02-14 11:31:00,41.0,25.0,-100.00,WNW,295,9.0,16.0,51,0.00,,,-99.99,,2013-02-14 17:31:00,
2013-02-14 11:41:00,42.0,26.0,-100.00,West,280,7.0,12.0,50,0.00,,,-99.99,,2013-02-14 17:41:00,
2013-02-14 11:52:00,43.0,25.0,-100.00,NW,320,12.0,19.0,48,0.00,,,-99.99,,2013-02-14 17:52:00,
2013-02-14 12:01:00,43.0,25.0,-100.00,NW,320,12.0,19.0,48,0.00,,,-99.99,,2013-02-14 18:01:00,
2013-02-14 12:11:00,42.0,24.0,-100.00,NW,315,15.0,20.0,48,0.00,,,-99.99,,2013-02-14 18:11:00,
2013-02-14 12:22:00,42.0,24.0,-100.00,NW,305,16.0,23.0,47,0.00,,,-99.99,,2013-02-14 18:22:00,
2013-02-14 12:32:00,43.0,25.0,-100.00,NW,320,11.0,20.0,47,0.00,,,-99.99,,2013-02-14 18:32:00,
2013-02-14 12:41:00,43.0,24.0,-100.00,NNW,340,13.0,21.0,47,0.00,,,-99.99,,2013-02-14 18:41:00,
2013-02-14 12:51:00,44.0,24.0,-100.00,NNW,330,11.0,20.0,45,0.00,,,-99.99,,2013-02-14 18:51:00,
2013-02-14 13:02:00,44.0,24.0,-100.00,NNW,330,11.0,20.0,45,0.00,,,-99.99,,2013-02-14 19:02:00,
2013-02-14 13:11:00,44.0,24.0,-100.00,WNW,295,12.0,22.0,46,0.00,,,-99.99,,2013-02-14 19:11:00,
2013-02-14 13:21:00,43.0,24.0,-100.00,WNW,300,18.0,24.0,46,0.00,,,-99.99,,2013-02-14 19:21:00,
2013-02-14 13:31:00,44.0,24.0,-100.00,WNW,300,13.0,24.0,45,0.00,,,-99.99,,2013-02-14 19:31:00,
2013-02-14 13:41:00,43.0,24.0,-100.00,West,275,16.0,21.0,47,0.00,,,-99.99,,2013-02-14 19:41:00,
2013-02-14 13:51:00,43.0,25.0,-100.00,West,280,12.0,22.0,47,0.00,,,-99.99,,2013-02-14 19:51:00,
2013-02-14 14:01:00,43.0,25.0,-100.00,West,280,12.0,22.0,47,0.00,,,-99.99,,2013-02-14 20:01:00,
2013-02-14 14:11:00,43.0,25.0,-100.00,West,275,16.0,25.0,48,0.00,,,-99.99,,2013-02-14 20:11:00,
2013-02-14 14:21:00,43.0,24.0,-100.00,West,280,16.0,23.0,47,0.00,,,-99.99,,2013-02-14 20:21:00,
2013-02-14 14:31:00,44.0,25.0,-100.00,West,280,14.0,22.0,47,0.00,,,-99.99,,2013-02-14 20:31:00,
2013-02-14 14:41:00,43.0,24.0,-100.00,WNW,285,9.0,21.0,47,0.00,,,-99.99,,2013-02-14 20:41:00,
2013-02-14 14:52:00,43.0,25.0,-100.00,West,280,14.0,22.0,48,0.00,,,-99.99,,2013-02-14 20:52:00,
2013-02-14 15:02:00,43.0,25.0,-100.00,West,280,14.0,22.0,48,0.00,,,-99.99,,2013-02-14 21:02:00,
2013-02-14 15:11:00,43.0,24.0,-100.00,NW,315,15.0,25.0,47,0.00,,,-99.99,,2013-02-14 21:11:00,
2013-02-14 15:21:00,44.0,24.0,-100.00,NW,325,14.0,24.0,45,0.00,,,-99.99,,2013-02-14 21:21:00,
2013-02-14 15:31:00,44.0,22.0,-100.00,NW,325,19.0,30.0,41,0.00,,,-99.99,,2013-02-14 21:31:00,
2013-02-14 15:41:00,43.0,21.0,-100.00,NW,315,15.0,27.0,41,0.00,,,-99.99,,2013-02-14 21:41:00,
2013-02-14 15:51:00,42.0,20.0,-100.00,NW,310,13.0,26.0,41,0.00,,,-99.99,,2013-02-14 21:51:00,
2013-02-14 16:02:00,42.0,20.0,-100.00,NW,310,13.0,26.0,41,0.00,,,-99.99,,2013-02-14 22:02:00,
2013-02-14 16:11:00,42.0,21.0,-100.00,NW,305,14.0,21.0,42,0.00,,,-99.99,,2013-02-14 22:11:00,
2013-02-14 16:21:00,42.0,20.0,-100.00,NW,325,14.0,22.0,42,0.00,,,-99.99,,2013-02-14 22:21:00,
2013-02-14 16:31:00,42.0,21.0,-100.00,NW,310,9.0,17.0,43,0.00,,,-99.99,,2013-02-14 22:31:00,
2013-02-14 16:41:00,42.0,21.0,-100.00,WNW,300,10.0,18.0,43,0.00,,,-99.99,,2013-02-14 22:41:00,
2013-02-14 16:51:00,42.0,22.0,-100.00,WNW,285,11.0,18.0,43,0.00,,,-99.99,,2013-02-14 22:51:00,
2013-02-14 17:01:00,42.0,22.0,-100.00,WNW,285,11.0,18.0,43,0.00,,,-99.99,,2013-02-14 23:01:00,
2013-02-14 17:11:00,42.0,21.0,-100.00,NW,315,14.0,23.0,43,0.00,,,-99.99,,2013-02-14 23:11:00,
2013-02-14 17:21:00,41.0,21.0,-100.00,NW,305,12.0,23.0,43,0.00,,,-99.99,,2013-02-14 23:21:00,
2013-02-14 17:32:00,41.0,20.0,-100.00,NW,305,14.0,18.0,43,0.00,,,-99.99,,2013-02-14 23:32:00,
2013-02-14 17:41:00,41.0,20.0,-100.00,NW,305,13.0,20.0,43,0.00,,,-99.99,,2013-02-14 23:41:00,
2013-02-14 17:52:00,40.0,20.0,-100.00,NW,320,12.0,19.0,43,0.00,,,-99.99,,2013-02-14 23:52:00,
2013-02-14 18:01:00,40.0,20.0,-100.00,NW,320,12.0,19.0,43,0.00,,,-99.99,,2013-02-15 00:01:00,
2013-02-14 18:11:00,40.0,20.0,-100.00,NW,305,8.0,16.0,44,0.00,,,-99.99,,2013-02-15 00:11:00,
2013-02-14 18:21:00,40.0,20.0,-100.00,NW,305,12.0,17.0,45,0.00,,,-99.99,,2013-02-15 00:21:00,
2013-02-14 18:31:00,39.0,20.0,-100.00,NW,305,10.0,16.0,45,0.00,,,-99.99,,2013-02-15 00:31:00,
2013-02-14 18:41:00,39.0,20.0,-100.00,NW,305,9.0,16.0,46,0.00,,,-99.99,,2013-02-15 00:41:00,
2013-02-14 18:51:00,38.0,20.0,-100.00,NW,320,9.0,14.0,47,0.00,,,-99.99,,2013-02-15 00:51:00,
2013-02-14 19:02:00,38.0,20.0,-100.00,NW,320,9.0,14.0,47,0.00,,,-99.99,,2013-02-15 01:02:00,
2013-02-14 19:11:00,38.0,20.0,-100.00,NW,320,9.0,12.0,48,0.00,,,-99.99,,2013-02-15 01:11:00,
2013-02-14 19:21:00,38.0,20.0,-100.00,NW,305,9.0,12.0,48,0.00,,,-99.99,,2013-02-15 01:21:00,
2013-02-14 19:31:00,37.0,20.0,-100.00,NW,310,10.0,13.0,49,0.00,,,-99.99,,2013-02-15 01:31:00,
2013-02-14 19:41:00,36.0,20.0,-100.00,WNW,295,11.0,15.0,51,0.00,,,-99.99,,2013-02-15 01:41:00,
2013-02-14 19:51:00,36.0,21.0,-100.00,WNW,300,11.0,14.0,53,0.00,,,-99.99,,2013-02-15 01:51:00,
2013-02-14 20:01:00,36.0,21.0,-100.00,WNW,300,11.0,14.0,53,0.00,,,-99.99,,2013-02-15 02:01:00,
2013-02-14 20:11:00,35.0,21.0,-100.00,NW,315,10.0,14.0,56,0.00,,,-99.99,,2013-02-15 02:11:00,
2013-02-14 20:21:00,35.0,22.0,-100.00,NW,315,9.0,14.0,58,0.00,,,-99.99,,2013-02-15 02:21:00,
2013-02-14 20:31:00,35.0,22.0,-100.00,NW,325,6.0,14.0,60,0.00,,,-99.99,,2013-02-15 02:31:00,
2013-02-14 20:41:00,34.0,23.0,-100.00,NNW,335,9.0,15.0,63,0.00,,,-99.99,,2013-02-15 02:41:00,
2013-02-14 20:52:00,34.0,23.0,-100.00,NNW,340,9.0,14.0,65,0.00,,,-99.99,,2013-02-15 02:52:00,
2013-02-14 21:02:00,34.0,23.0,-100.00,NNW,340,9.0,14.0,65,0.00,,,-99.99,,2013-02-15 03:02:00,
2013-02-14 21:11:00,33.0,23.0,-100.00,NNW,345,9.0,19.0,65,0.00,,,-99.99,,2013-02-15 03:11:00,
2013-02-14 21:21:00,33.0,23.0,-100.00,North,0,15.0,19.0,65,0.00,,,-99.99,,2013-02-15 03:21:00,
2013-02-14 21:32:00,33.0,22.0,-100.00,NNW,345,11.0,18.0,65,0.00,,,-99.99,,2013-02-15 03:32:00,
2013-02-14 21:42:00,32.0,22.0,-100.00,North,0,8.0,15.0,67,0.00,,,-99.99,,2013-02-15 03:42:00,
2013-02-14 21:51:00,31.0,22.0,-100.00,North,350,10.0,18.0,67,0.00,,,-99.99,,2013-02-15 03:51:00,
2013-02-14 22:01:00,31.0,22.0,-100.00,North,350,10.0,18.0,67,0.00,,,-99.99,,2013-02-15 04:01:00,
2013-02-14 22:11:00,31.0,21.0,-100.00,NNW,345,17.0,24.0,67,0.00,,,-99.99,,2013-02-15 04:11:00,
2013-02-14 22:21:00,30.0,20.0,-100.00,North,350,17.0,24.0,65,0.00,,,-99.99,,2013-02-15 04:21:00,
2013-02-14 22:32:00,30.0,20.0,-100.00,NNW,345,14.0,23.0,65,0.00,,,-99.99,,2013-02-15 04:32:00,
2013-02-14 22:42:00,29.0,19.0,-100.00,NNW,335,12.0,20.0,65,0.00,,,-99.99,,2013-02-15 04:42:00,
2013-02-14 22:51:00,29.0,20.0,-100.00,NNW,340,11.0,17.0,69,0.00,,,-99.99,,2013-02-15 04:51:00,
2013-02-14 23:02:00,29.0,20.0,-100.00,NNW,340,11.0,17.0,69,0.00,,,-99.99,,2013-02-15 05:02:00,
2013-02-14 23:11:00,29.0,19.0,-100.00,NNW,335,15.0,22.0,67,0.00,,,-99.99,,2013-02-15 05:11:00,
2013-02-14 23:22:00,28.0,18.0,-100.00,NNW,340,14.0,23.0,65,0.00,,,-99.99,,2013-02-15 05:22:00,
2013-02-14 23:32:00,28.0,17.0,-100.00,North,350,13.0,21.0,62,0.00,,,-99.99,,2013-02-15 05:32:00,
2013-02-14 23:41:00,27.0,15.0,-100.00,NNW,345,12.0,19.0,59,0.00,,,-99.99,,2013-02-15 05:41:00,
2013-02-14 23:52:00,27.0,14.0,-100.00,NNW,345,13.0,22.0,59,0.00,,,-99.99,,2013-02-15 05:52:00,